createdAt,value
2017-11-21T00:02:17.355Z,24.20
2017-11-21T00:04:44.223Z,23.63
2017-11-21T00:07:11.147Z,21.80
2017-11-21T00:09:38.297Z,21.10
2017-11-21T00:12:06.486Z,22.70
2017-11-21T00:14:33.399Z,23.50
2017-11-21T00:17:00.820Z,21.20
2017-11-21T00:19:27.661Z,20.33
2017-11-21T00:21:55.227Z,19.30
2017-11-21T00:24:22.731Z,18.37
2017-11-21T00:26:50.089Z,20.60
2017-11-21T00:29:17.492Z,18.67
2017-11-21T00:31:44.867Z,17.60
2017-11-21T00:34:12.740Z,18.00
2017-11-21T00:36:41.397Z,15.33
2017-11-21T00:39:09.088Z,17.10
2017-11-21T00:41:36.018Z,18.10
2017-11-21T00:44:03.629Z,17.37
2017-11-21T00:46:30.490Z,17.90
2017-11-21T00:48:58.578Z,16.77
2017-11-21T00:51:26.490Z,20.93
2017-11-21T00:53:54.149Z,19.50
2017-11-21T00:56:20.969Z,19.83
2017-11-21T00:58:47.790Z,20.10
2017-11-21T01:01:14.634Z,20.60
2017-11-21T01:03:41.574Z,18.83
2017-11-21T01:06:08.425Z,21.50
2017-11-21T01:08:35.986Z,21.67
2017-11-21T01:11:02.821Z,23.80
2017-11-21T01:13:29.617Z,27.40
2017-11-21T01:15:56.462Z,26.90
2017-11-21T01:18:23.299Z,29.67
2017-11-21T01:20:50.134Z,30.47
2017-11-21T01:23:17.017Z,31.90
2017-11-21T01:25:43.846Z,31.27
2017-11-21T01:28:11.445Z,29.70
2017-11-21T01:30:38.371Z,28.87
2017-11-21T01:33:06.043Z,29.60
2017-11-21T01:35:32.864Z,30.87
2017-11-21T01:37:59.726Z,30.90
2017-11-21T01:40:26.567Z,29.63
2017-11-21T01:42:53.392Z,29.00
2017-11-21T01:45:20.977Z,25.70
2017-11-21T01:47:48.559Z,25.23
2017-11-21T01:50:16.114Z,24.87
2017-11-21T01:52:42.967Z,20.50
2017-11-21T01:55:09.784Z,21.93
2017-11-21T01:57:36.606Z,20.77
2017-11-21T02:00:03.454Z,22.20
2017-11-21T02:02:30.279Z,21.40
2017-11-21T02:04:57.862Z,24.27
2017-11-21T02:07:24.697Z,21.67
2017-11-21T02:09:51.541Z,25.67
2017-11-21T02:12:19.112Z,23.33
2017-11-21T02:14:46.745Z,24.53
2017-11-21T02:17:13.588Z,27.77
2017-11-21T02:19:40.500Z,26.90
2017-11-21T02:22:08.114Z,27.10
2017-11-21T02:24:35.007Z,25.40
2017-11-21T02:27:01.905Z,23.87
2017-11-21T02:29:28.757Z,25.07
2017-11-21T02:31:55.665Z,24.60
2017-11-21T02:34:22.567Z,20.70
2017-11-21T02:36:49.447Z,20.80
2017-11-21T02:39:16.347Z,20.60
2017-11-21T02:41:43.255Z,20.90
2017-11-21T02:44:10.144Z,18.43
2017-11-21T02:46:37.745Z,17.40
2017-11-21T02:49:05.372Z,18.40
2017-11-21T02:51:32.339Z,20.00
2017-11-21T02:53:59.306Z,21.20
2017-11-21T02:56:26.181Z,21.40
2017-11-21T02:58:53.093Z,21.50
2017-11-21T03:01:19.981Z,25.20
2017-11-21T03:03:46.844Z,26.17
2017-11-21T03:06:13.691Z,26.87
2017-11-21T03:08:40.553Z,24.90
2017-11-21T03:11:07.423Z,26.73
2017-11-21T03:13:34.234Z,28.57
2017-11-21T03:16:01.912Z,28.13
2017-11-21T03:18:29.492Z,33.23
2017-11-21T03:21:15.366Z,34.00
2017-11-21T03:24:00.286Z,34.83
2017-11-21T03:26:27.167Z,35.57
2017-11-21T03:28:54.048Z,35.00
2017-11-21T03:31:20.917Z,35.67
2017-11-21T03:33:47.855Z,36.40
2017-11-21T03:36:14.734Z,35.70
2017-11-21T03:38:41.640Z,33.03
2017-11-21T03:41:09.209Z,32.47
2017-11-21T03:43:36.042Z,35.83
2017-11-21T03:46:02.957Z,34.23
2017-11-21T03:48:29.814Z,35.83
2017-11-21T03:50:56.692Z,38.60
2017-11-21T03:53:23.540Z,41.90
2017-11-21T03:55:50.415Z,39.67
2017-11-21T03:58:17.252Z,40.17
2017-11-21T04:00:59.813Z,41.83
2017-11-21T04:03:26.652Z,41.90
2017-11-21T04:05:53.582Z,42.73
2017-11-21T04:08:20.418Z,40.10
2017-11-21T04:10:47.284Z,41.30
2017-11-21T04:13:14.163Z,44.17
2017-11-21T04:15:41.011Z,43.90
2017-11-21T04:18:07.869Z,44.87
2017-11-21T04:20:34.713Z,41.23
2017-11-21T04:23:01.596Z,38.90
2017-11-21T04:25:28.483Z,39.37
2017-11-21T04:27:56.112Z,29.50
2017-11-21T04:30:22.977Z,33.20
2017-11-21T04:32:49.825Z,34.47
2017-11-21T04:35:16.665Z,30.43
2017-11-21T04:37:43.552Z,29.00
2017-11-21T04:40:10.395Z,28.60
2017-11-21T04:42:37.288Z,24.63
2017-11-21T04:45:04.130Z,20.90
2017-11-21T04:47:30.998Z,17.00
2017-11-21T04:49:57.850Z,15.40
2017-11-21T04:52:24.699Z,14.00
2017-11-21T04:54:51.539Z,10.50
2017-11-21T04:57:18.408Z,11.10
2017-11-21T04:59:46.004Z,11.20
2017-11-21T05:02:12.912Z,12.40
2017-11-21T05:04:39.739Z,13.00
2017-11-21T05:07:06.589Z,12.97
2017-11-21T05:09:33.481Z,12.30
2017-11-21T05:12:00.348Z,14.20
2017-11-21T05:14:27.169Z,16.13
2017-11-21T05:16:54.040Z,18.30
2017-11-21T05:19:20.891Z,20.40
2017-11-21T05:21:47.760Z,21.10
2017-11-21T05:24:14.674Z,24.47
2017-11-21T05:26:41.536Z,27.40
2017-11-21T05:29:08.432Z,31.30
2017-11-21T05:31:35.329Z,33.90
2017-11-21T05:34:02.162Z,34.10
2017-11-21T05:36:28.988Z,36.40
2017-11-21T05:38:55.864Z,40.63
2017-11-21T05:41:23.442Z,40.80
2017-11-21T05:43:51.900Z,41.10
2017-11-21T05:46:18.782Z,38.50
2017-11-21T05:48:45.633Z,41.67
2017-11-21T05:51:12.550Z,40.40
2017-11-21T05:53:39.452Z,37.23
2017-11-21T05:56:06.298Z,38.43
2017-11-21T05:58:33.227Z,36.00
2017-11-21T06:01:00.116Z,39.10
2017-11-21T06:03:26.954Z,38.30
2017-11-21T06:05:53.827Z,34.00
2017-11-21T06:08:20.699Z,36.80
2017-11-21T06:10:47.595Z,37.33
2017-11-21T06:13:14.456Z,37.80
2017-11-21T06:15:41.370Z,37.17
2017-11-21T06:18:08.242Z,39.07
2017-11-21T06:20:35.102Z,37.70
2017-11-21T06:23:01.953Z,38.00
2017-11-21T06:25:28.821Z,37.97
2017-11-21T06:27:57.985Z,37.83
2017-11-21T06:30:25.572Z,36.80
2017-11-21T06:32:52.423Z,36.30
2017-11-21T06:35:19.243Z,35.63
2017-11-21T06:37:48.491Z,35.80
2017-11-21T06:40:15.656Z,34.27
2017-11-21T06:42:42.584Z,33.13
2017-11-21T06:45:09.478Z,33.30
2017-11-21T06:47:36.355Z,34.43
2017-11-21T06:50:03.246Z,31.20
2017-11-21T06:52:30.093Z,31.27
2017-11-21T06:54:57.666Z,32.03
2017-11-21T06:57:24.534Z,30.50
2017-11-21T06:59:51.422Z,29.77
2017-11-21T07:02:18.267Z,31.80
2017-11-21T07:04:47.252Z,33.90
2017-11-21T07:07:14.101Z,29.33
2017-11-21T07:09:41.000Z,29.63
2017-11-21T07:12:08.601Z,53.87
2017-11-21T07:14:35.489Z,30.27
2017-11-21T07:17:02.354Z,28.60
2017-11-21T07:19:29.191Z,36.03
2017-11-21T07:21:56.044Z,37.47
2017-11-21T07:24:22.888Z,46.60
2017-11-21T07:26:50.549Z,35.67
2017-11-21T07:29:18.126Z,28.80
2017-11-21T07:31:45.008Z,32.70
2017-11-21T07:34:12.632Z,24.30
2017-11-21T07:36:39.497Z,26.47
2017-11-21T07:39:06.368Z,25.00
2017-11-21T07:41:33.251Z,24.23
2017-11-21T07:44:00.103Z,27.10
2017-11-21T07:46:26.977Z,20.13
2017-11-21T07:48:53.885Z,24.23
2017-11-21T07:51:20.766Z,25.43
2017-11-21T07:53:47.601Z,24.80
2017-11-21T07:56:14.452Z,21.80
2017-11-21T07:58:41.317Z,19.23
2017-11-21T08:01:08.180Z,20.37
2017-11-21T08:03:35.062Z,20.33
2017-11-21T08:06:01.970Z,17.83
2017-11-21T08:08:28.834Z,16.63
2017-11-21T08:10:55.780Z,16.80
2017-11-21T08:13:22.677Z,16.30
2017-11-21T08:15:50.345Z,13.57
2017-11-21T08:18:17.992Z,12.83
2017-11-21T08:20:44.871Z,15.20
2017-11-21T08:23:11.767Z,14.33
2017-11-21T08:25:38.673Z,13.00
2017-11-21T08:28:05.571Z,13.00
2017-11-21T08:30:32.450Z,11.27
2017-11-21T08:32:59.316Z,10.17
2017-11-21T08:35:26.207Z,10.87
2017-11-21T08:37:53.164Z,10.77
2017-11-21T08:40:20.057Z,10.90
2017-11-21T08:42:46.960Z,10.20
2017-11-21T08:45:13.815Z,9.10
2017-11-21T08:47:41.413Z,7.23
2017-11-21T08:50:08.278Z,8.60
2017-11-21T08:52:35.140Z,6.03
2017-11-21T08:55:02.008Z,5.90
2017-11-21T08:57:28.892Z,5.53
2017-11-21T08:59:55.743Z,4.43
2017-11-21T09:02:22.572Z,4.30
2017-11-21T09:04:50.162Z,4.27
2017-11-21T09:07:17.027Z,5.00
2017-11-21T09:09:43.908Z,29.60
2017-11-21T09:12:10.793Z,5.90
2017-11-21T09:14:37.682Z,4.30
2017-11-21T09:17:05.289Z,4.97
2017-11-21T09:19:32.133Z,5.47
2017-11-21T09:21:59.723Z,4.80
2017-11-21T09:24:26.580Z,5.90
2017-11-21T09:26:53.424Z,9.33
2017-11-21T09:29:21.012Z,23.83
2017-11-21T09:31:50.395Z,26.67
2017-11-21T09:34:17.525Z,10.70
2017-11-21T09:36:44.383Z,5.03
2017-11-21T09:39:11.243Z,4.57
2017-11-21T09:41:38.083Z,4.93
2017-11-21T09:44:05.646Z,4.57
2017-11-21T09:46:32.482Z,9.60
2017-11-21T09:48:59.306Z,5.17
2017-11-21T09:51:26.150Z,4.50
2017-11-21T09:53:52.989Z,5.57
2017-11-21T09:56:20.581Z,4.60
2017-11-21T09:58:48.179Z,4.07
2017-11-21T10:01:15.699Z,3.90
2017-11-21T10:03:42.536Z,4.07
2017-11-21T10:06:09.418Z,4.63
2017-11-21T10:08:36.315Z,4.80
2017-11-21T10:11:03.960Z,4.77
2017-11-21T10:13:30.824Z,4.50
2017-11-21T10:15:57.686Z,5.10
2017-11-21T10:18:24.578Z,5.70
2017-11-21T10:20:52.250Z,4.87
2017-11-21T10:23:19.146Z,5.60
2017-11-21T10:25:46.049Z,5.40
2017-11-21T10:28:12.915Z,5.50
2017-11-21T10:30:39.841Z,5.40
2017-11-21T10:33:06.773Z,5.93
2017-11-21T10:35:34.409Z,5.77
2017-11-21T10:38:01.290Z,4.77
2017-11-21T10:40:28.214Z,5.27
2017-11-21T10:42:55.096Z,5.70
2017-11-21T10:45:21.990Z,5.90
2017-11-21T10:47:48.859Z,6.50
2017-11-21T10:50:16.457Z,4.87
2017-11-21T10:52:43.301Z,5.43
2017-11-21T10:55:10.971Z,5.20
2017-11-21T10:57:37.942Z,4.70
2017-11-21T11:00:04.861Z,5.50
2017-11-21T11:02:31.830Z,8.10
2017-11-21T11:04:58.762Z,7.03
2017-11-21T11:07:25.693Z,8.63
2017-11-21T11:09:53.375Z,9.20
2017-11-21T11:12:21.904Z,9.77
2017-11-21T11:14:48.916Z,9.23
2017-11-21T11:17:15.855Z,12.53
2017-11-21T11:19:42.755Z,11.53
2017-11-21T11:22:09.639Z,12.07
2017-11-21T11:24:37.308Z,13.23
2017-11-21T11:27:04.938Z,13.17
2017-11-21T11:29:31.917Z,14.20
2017-11-21T11:31:58.845Z,13.20
2017-11-21T11:34:25.727Z,15.10
2017-11-21T11:36:52.603Z,15.70
2017-11-21T11:39:19.536Z,15.70
2017-11-21T11:41:46.418Z,16.20
2017-11-21T11:44:15.590Z,15.60
2017-11-21T11:46:42.473Z,16.90
2017-11-21T11:49:09.346Z,17.03
2017-11-21T11:51:36.961Z,14.87
2017-11-21T11:54:04.655Z,16.10
2017-11-21T11:56:31.597Z,13.93
2017-11-21T11:58:58.498Z,15.00
2017-11-21T12:01:26.242Z,14.63
2017-11-21T12:03:53.178Z,13.50
2017-11-21T12:06:20.124Z,13.23
2017-11-21T12:08:47.110Z,13.40
2017-11-21T12:11:14.028Z,12.83
2017-11-21T12:13:41.736Z,13.27
2017-11-21T12:16:10.160Z,12.10
2017-11-21T12:18:37.070Z,13.13
2017-11-21T12:21:04.763Z,11.13
2017-11-21T12:23:31.680Z,12.20
2017-11-21T12:25:58.586Z,10.77
2017-11-21T12:28:26.295Z,11.90
2017-11-21T12:30:53.309Z,10.47
2017-11-21T12:33:20.367Z,11.43
2017-11-21T12:35:47.338Z,10.77
2017-11-21T12:38:14.238Z,11.07
2017-11-21T12:40:41.452Z,9.70
2017-11-21T12:43:09.245Z,11.03
2017-11-21T12:45:36.204Z,10.33
2017-11-21T12:48:03.237Z,11.60
2017-11-21T12:50:30.186Z,10.47
2017-11-21T12:52:57.121Z,9.80
2017-11-21T12:55:25.388Z,8.47
2017-11-21T12:57:52.367Z,10.00
2017-11-21T13:00:21.314Z,8.17
2017-11-21T13:02:48.337Z,6.70
2017-11-21T13:05:15.254Z,12.03
2017-11-21T13:07:42.158Z,10.60
2017-11-21T13:10:09.127Z,9.27
2017-11-21T13:12:36.035Z,10.50
2017-11-21T13:15:02.977Z,16.90
2017-11-21T13:17:31.030Z,6.93
2017-11-21T13:19:57.958Z,15.20
2017-11-21T13:22:24.926Z,10.60
2017-11-21T13:24:51.842Z,14.67
2017-11-21T13:27:18.825Z,9.30
2017-11-21T13:29:46.507Z,16.70
2017-11-21T13:32:14.090Z,14.67
2017-11-21T13:34:41.730Z,11.43
2017-11-21T13:37:08.632Z,10.60
2017-11-21T13:39:36.413Z,22.73
2017-11-21T13:42:03.409Z,11.47
2017-11-21T13:44:30.436Z,31.73
2017-11-21T13:46:58.159Z,11.33
2017-11-21T13:49:25.107Z,9.50
2017-11-21T13:51:54.153Z,11.60
2017-11-21T13:54:21.201Z,17.53
2017-11-21T13:56:48.189Z,34.93
2017-11-21T13:59:15.162Z,26.90
2017-11-21T14:01:42.149Z,35.70
2017-11-21T14:04:09.170Z,14.50
2017-11-21T14:06:36.123Z,11.57
2017-11-21T14:09:03.093Z,18.20
2017-11-21T14:11:29.985Z,13.40
2017-11-21T14:13:56.906Z,14.10
2017-11-21T14:16:23.845Z,21.20
2017-11-21T14:18:50.894Z,18.80
2017-11-21T14:21:18.521Z,17.70
2017-11-21T14:23:45.415Z,14.40
2017-11-21T14:26:12.291Z,15.00
2017-11-21T14:28:39.943Z,13.17
2017-11-21T14:31:07.030Z,13.20
2017-11-21T14:33:34.170Z,13.73
2017-11-21T14:36:01.191Z,12.50
2017-11-21T14:38:28.131Z,14.57
2017-11-21T14:40:55.089Z,15.50
2017-11-21T14:43:22.031Z,16.10
2017-11-21T14:45:48.957Z,15.60
2017-11-21T14:48:15.873Z,17.23
2017-11-21T14:50:42.785Z,18.23
2017-11-21T14:53:09.635Z,18.00
2017-11-21T14:55:36.595Z,18.53
2017-11-21T14:58:04.549Z,17.90
2017-11-21T15:00:31.583Z,20.57
2017-11-21T15:02:58.511Z,17.23
2017-11-21T15:05:25.455Z,19.50
2017-11-21T15:07:54.784Z,17.57
2017-11-21T15:10:21.803Z,17.20
2017-11-21T15:12:48.706Z,18.80
2017-11-21T15:15:16.316Z,20.07
2017-11-21T15:17:52.290Z,19.60
2017-11-21T15:20:30.287Z,19.80
2017-11-21T15:22:57.245Z,19.00
2017-11-21T15:25:25.370Z,19.33
2017-11-21T15:27:52.359Z,20.57
2017-11-21T15:30:19.250Z,20.53
2017-11-21T15:32:46.926Z,21.33
2017-11-21T15:35:13.832Z,21.87
2017-11-21T15:37:45.748Z,22.10
2017-11-21T15:40:12.607Z,20.70
2017-11-21T15:42:39.479Z,21.70
2017-11-21T15:45:07.115Z,20.43
2017-11-21T15:47:33.982Z,21.97
2017-11-21T15:50:00.857Z,22.80
2017-11-21T15:52:27.821Z,23.30
2017-11-21T15:54:54.709Z,27.40
2017-11-21T15:57:21.596Z,25.90
2017-11-21T15:59:49.261Z,28.80
2017-11-21T16:02:16.127Z,26.93
2017-11-21T16:04:43.021Z,27.00
2017-11-21T16:07:09.997Z,35.20
2017-11-21T16:09:36.968Z,24.63
2017-11-21T16:12:03.902Z,24.67
2017-11-21T16:14:30.790Z,28.93
2017-11-21T16:16:57.693Z,31.67
2017-11-21T16:19:24.827Z,26.30
2017-11-21T16:21:51.744Z,26.33
2017-11-21T16:24:19.400Z,27.63
2017-11-21T16:26:46.252Z,27.83
2017-11-21T16:29:13.131Z,33.43
2017-11-21T16:31:39.974Z,25.23
2017-11-21T16:34:06.964Z,23.40
2017-11-21T16:36:33.809Z,21.57
2017-11-21T16:39:00.702Z,23.93
2017-11-21T16:41:28.353Z,21.13
2017-11-21T16:43:55.251Z,21.70
2017-11-21T16:46:22.102Z,24.83
2017-11-21T16:48:49.685Z,21.90
2017-11-21T16:51:17.249Z,21.53
2017-11-21T16:53:45.027Z,23.03
2017-11-21T16:56:12.113Z,26.80
2017-11-21T16:58:39.771Z,23.80
2017-11-21T17:01:06.662Z,23.80
2017-11-21T17:03:33.501Z,26.10
2017-11-21T17:06:00.433Z,24.93
2017-11-21T17:08:27.297Z,24.83
2017-11-21T17:10:54.246Z,22.87
2017-11-21T17:13:21.241Z,22.10
2017-11-21T17:15:48.161Z,22.10
2017-11-21T17:18:15.026Z,20.73
2017-11-21T17:20:41.930Z,23.33
2017-11-21T17:23:08.853Z,20.70
2017-11-21T17:25:35.728Z,21.00
2017-11-21T17:28:02.580Z,19.90
2017-11-21T17:30:29.445Z,21.03
2017-11-21T17:32:56.271Z,21.63
2017-11-21T17:35:23.117Z,20.90
2017-11-21T17:37:50.685Z,20.40
2017-11-21T17:40:17.588Z,20.83
2017-11-21T17:42:44.459Z,19.70
2017-11-21T17:45:11.386Z,18.83
2017-11-21T17:47:38.966Z,20.30
2017-11-21T17:50:06.576Z,21.53
2017-11-21T17:52:33.453Z,21.10
2017-11-21T17:55:00.439Z,20.93
2017-11-21T17:57:27.631Z,20.60
2017-11-21T17:59:55.243Z,22.60
2017-11-21T18:02:23.029Z,20.73
2017-11-21T18:04:51.041Z,20.90
2017-11-21T18:07:17.903Z,18.90
2017-11-21T18:09:44.801Z,20.10
2017-11-21T18:12:11.675Z,20.57
2017-11-21T18:14:39.649Z,18.70
2017-11-21T18:17:06.605Z,19.83
2017-11-21T18:19:33.628Z,18.83
2017-11-21T18:22:00.981Z,20.40
2017-11-21T18:24:28.352Z,17.17
2017-11-21T18:26:57.154Z,18.60
2017-11-21T18:29:24.048Z,18.83
2017-11-21T18:31:51.891Z,17.73
2017-11-21T18:34:19.659Z,18.77
2017-11-21T18:36:47.319Z,20.00
2017-11-21T18:39:14.300Z,19.17
2017-11-21T18:41:41.156Z,19.90
2017-11-21T18:44:08.507Z,19.10
2017-11-21T18:46:35.396Z,19.07
2017-11-21T18:49:02.266Z,18.57
2017-11-21T18:51:30.247Z,21.03
2017-11-21T18:53:57.856Z,18.80
2017-11-21T18:56:25.137Z,18.47
2017-11-21T18:58:51.981Z,18.73
2017-11-21T19:01:19.911Z,17.67
2017-11-21T19:03:47.312Z,18.47
2017-11-21T19:06:14.225Z,19.43
2017-11-21T19:08:41.385Z,19.77
2017-11-21T19:11:08.344Z,19.33
2017-11-21T19:13:35.626Z,19.80
2017-11-21T19:16:02.965Z,20.27
2017-11-21T19:18:29.841Z,19.80
2017-11-21T19:20:57.528Z,20.23
2017-11-21T19:23:24.535Z,21.50
2017-11-21T19:25:51.938Z,19.67
2017-11-21T19:28:19.578Z,20.33
2017-11-21T19:30:46.477Z,20.20
2017-11-21T19:33:13.490Z,21.77
2017-11-21T19:35:40.727Z,18.33
2017-11-21T19:38:07.740Z,18.03
2017-11-21T19:40:34.836Z,18.70
2017-11-21T19:43:02.421Z,19.90
2017-11-21T19:45:30.737Z,17.33
2017-11-21T19:47:58.536Z,19.03
2017-11-21T19:50:26.398Z,20.13
2017-11-21T19:52:53.367Z,17.50
2017-11-21T19:55:23.112Z,17.43
2017-11-21T19:57:51.259Z,16.53
2017-11-21T20:00:20.046Z,16.20
2017-11-21T20:02:48.964Z,15.10
2017-11-21T20:05:17.885Z,16.60
2017-11-21T20:07:46.556Z,15.50
2017-11-21T20:10:14.345Z,15.33
2017-11-21T20:12:42.259Z,14.83
2017-11-21T20:15:10.678Z,16.77
2017-11-21T20:17:37.706Z,15.57
2017-11-21T20:20:04.979Z,14.73
2017-11-21T20:22:31.947Z,15.30
2017-11-21T20:24:59.703Z,14.87
2017-11-21T20:27:27.685Z,15.10
2017-11-21T20:29:56.164Z,15.73
2017-11-21T20:32:27.881Z,12.87
2017-11-21T20:34:54.983Z,14.27
2017-11-21T20:37:23.549Z,14.23
2017-11-21T20:39:53.047Z,14.90
2017-11-21T20:42:22.510Z,14.50
2017-11-21T20:44:49.553Z,14.63
2017-11-21T20:47:17.238Z,13.80
2017-11-21T20:49:45.396Z,14.40
2017-11-21T20:52:14.248Z,14.57
2017-11-21T20:54:46.038Z,14.80
2017-11-21T20:57:14.115Z,14.37
2017-11-21T20:59:41.836Z,14.67
2017-11-21T21:02:08.860Z,14.53
2017-11-21T21:04:35.868Z,16.00
2017-11-21T21:07:03.471Z,14.77
2017-11-21T21:09:31.295Z,15.40
2017-11-21T21:11:58.180Z,14.13
2017-11-21T21:14:25.813Z,14.33
2017-11-21T21:16:52.728Z,15.37
2017-11-21T21:19:20.337Z,16.07
2017-11-21T21:21:47.240Z,15.20
2017-11-21T21:24:14.089Z,14.60
2017-11-21T21:26:41.012Z,15.37
2017-11-21T21:29:07.882Z,16.30
2017-11-21T21:31:34.741Z,16.03
2017-11-21T21:34:01.659Z,14.83
2017-11-21T21:36:29.402Z,12.03
2017-11-21T21:38:56.264Z,14.60
2017-11-21T21:41:23.074Z,15.10
2017-11-21T21:43:51.180Z,16.40
2017-11-21T21:46:18.101Z,14.60
2017-11-21T21:48:44.933Z,15.00
2017-11-21T21:51:11.800Z,14.27
2017-11-21T21:53:38.672Z,15.53
2017-11-21T21:56:05.557Z,14.33
2017-11-21T21:58:32.432Z,13.00
2017-11-21T22:00:59.856Z,12.93
2017-11-21T22:03:26.763Z,15.47
2017-11-21T22:05:53.598Z,14.00
2017-11-21T22:08:20.453Z,15.77
2017-11-21T22:10:47.289Z,14.23
2017-11-21T22:13:14.152Z,13.30
2017-11-21T22:15:40.973Z,13.83
2017-11-21T22:18:07.868Z,11.43
2017-11-21T22:20:34.663Z,12.83
2017-11-21T22:23:01.484Z,11.87
2017-11-21T22:25:28.373Z,11.40
2017-11-21T22:27:55.189Z,13.10
2017-11-21T22:30:23.246Z,10.97
2017-11-21T22:32:50.086Z,11.20
2017-11-21T22:35:16.909Z,12.33
2017-11-21T22:37:44.473Z,11.13
2017-11-21T22:40:12.091Z,10.33
2017-11-21T22:42:38.963Z,11.40
2017-11-21T22:45:05.825Z,13.10
2017-11-21T22:47:34.677Z,12.83
2017-11-21T22:50:01.603Z,12.10
2017-11-21T22:52:28.472Z,12.60
2017-11-21T22:54:56.154Z,11.00
2017-11-21T22:57:26.077Z,11.60
2017-11-21T22:59:53.232Z,11.43
2017-11-21T23:02:20.084Z,10.97
2017-11-21T23:04:47.000Z,12.50
2017-11-21T23:07:13.914Z,10.20
2017-11-21T23:09:40.804Z,10.90
2017-11-21T23:12:07.676Z,11.03
2017-11-21T23:14:34.565Z,11.20
2017-11-21T23:17:02.127Z,11.47
2017-11-21T23:19:29.225Z,10.70
2017-11-21T23:21:56.174Z,11.43
2017-11-21T23:24:23.774Z,9.93
2017-11-21T23:26:50.798Z,10.93
2017-11-21T23:29:18.578Z,10.60
2017-11-21T23:31:46.136Z,10.97
2017-11-21T23:34:16.103Z,9.87
2017-11-21T23:36:43.550Z,11.30
2017-11-21T23:39:11.209Z,10.33
2017-11-21T23:41:38.140Z,10.73
2017-11-21T23:44:05.625Z,10.33
2017-11-21T23:46:33.229Z,10.50
2017-11-21T23:49:01.884Z,10.00
2017-11-21T23:51:29.595Z,8.90
2017-11-21T23:53:56.421Z,9.57
2017-11-21T23:56:24.001Z,10.47
2017-11-21T23:58:51.608Z,10.50
